Hamilton, New York
Current Conditions -  °F | °C
As of 2:53 PM on Saturday 25 Oct 2014 (Local Time) from KRME Reporting Station
Overcast Overcast  
Wind Chill: 63°   Ceiling: 9000
Heat Index: 63°   Visibility: 10mi
Dew Point: 45°   Wind: 14mph
Humidity: 52%   Direction: 230°SW
Pressure: 29.63"   Gusts: 21mph
Location:  42.83°N, 75.54°W
Report Text: KRME 251853Z 23012G18KT 10SM FEW045 BKN090 OVC100 17/07 A2963 RMK AO2 SLP034 T01720072
Loading
Personal Weather Stations






























Interactive Weather Map
Tropical Storm Tracking
New forecast layout! Learn more

10-Day Weather Forecast

Advertisements
Track Severe Weather on mobile